sensor_id;sensor_type;location;lat;lon;timestamp;pressure;altitude;pressure_sealevel;temperature;humidity
68594;BME280;55563;52.416;13.548;2022-08-01T00:00:13;100766.88;;;22.13;58.76
68594;BME280;55563;52.416;13.548;2022-08-01T00:02:14;100759.84;;;22.08;59.04
68594;BME280;55563;52.416;13.548;2022-08-01T00:04:15;100766.00;;;22.09;59.32
68594;BME280;55563;52.416;13.548;2022-08-01T00:06:15;100757.50;;;22.07;59.30
68594;BME280;55563;52.416;13.548;2022-08-01T00:08:16;100760.63;;;22.09;59.16
68594;BME280;55563;52.416;13.548;2022-08-01T00:10:17;100741.25;;;21.79;61.23
68594;BME280;55563;52.416;13.548;2022-08-01T00:12:17;100740.34;;;21.87;60.62
68594;BME280;55563;52.416;13.548;2022-08-01T00:14:18;100747.09;;;21.93;60.10
68594;BME280;55563;52.416;13.548;2022-08-01T00:16:19;100746.47;;;21.96;60.00
68594;BME280;55563;52.416;13.548;2022-08-01T00:18:22;100742.81;;;21.80;60.95
68594;BME280;55563;52.416;13.548;2022-08-01T00:20:23;100755.78;;;21.90;60.52
68594;BME280;55563;52.416;13.548;2022-08-01T00:22:24;100756.78;;;21.86;60.70
68594;BME280;55563;52.416;13.548;2022-08-01T00:24:24;100759.09;;;21.87;60.54
68594;BME280;55563;52.416;13.548;2022-08-01T00:26:25;100753.50;;;21.80;61.44
68594;BME280;55563;52.416;13.548;2022-08-01T00:28:26;100750.72;;;21.77;61.13
68594;BME280;55563;52.416;13.548;2022-08-01T00:30:26;100761.53;;;21.80;61.21
68594;BME280;55563;52.416;13.548;2022-08-01T00:32:30;100762.66;;;21.79;61.66
68594;BME280;55563;52.416;13.548;2022-08-01T00:34:31;100750.22;;;21.62;62.46
68594;BME280;55563;52.416;13.548;2022-08-01T00:36:32;100747.88;;;21.61;62.46
68594;BME280;55563;52.416;13.548;2022-08-01T00:38:32;100743.00;;;21.63;62.43
68594;BME280;55563;52.416;13.548;2022-08-01T00:40:33;100760.16;;;21.62;62.49
68594;BME280;55563;52.416;13.548;2022-08-01T00:42:33;100759.03;;;21.63;62.50
68594;BME280;55563;52.416;13.548;2022-08-01T00:44:34;100757.00;;;21.60;62.93
68594;BME280;55563;52.416;13.548;2022-08-01T00:46:35;100757.31;;;21.58;63.06
68594;BME280;55563;52.416;13.548;2022-08-01T00:48:36;100757.91;;;21.64;63.10
68594;BME280;55563;52.416;13.548;2022-08-01T00:50:36;100768.81;;;21.59;63.53
68594;BME280;55563;52.416;13.548;2022-08-01T00:52:38;100761.78;;;21.54;64.46
68594;BME280;55563;52.416;13.548;2022-08-01T00:54:39;100755.44;;;21.59;63.67
68594;BME280;55563;52.416;13.548;2022-08-01T00:56:40;100765.78;;;21.48;64.81
68594;BME280;55563;52.416;13.548;2022-08-01T00:58:41;100757.41;;;21.50;64.82
68594;BME280;55563;52.416;13.548;2022-08-01T01:00:42;100765.13;;;21.51;64.50
68594;BME280;55563;52.416;13.548;2022-08-01T01:02:42;100758.59;;;21.40;65.65
68594;BME280;55563;52.416;13.548;2022-08-01T01:04:44;100759.06;;;21.42;65.18
68594;BME280;55563;52.416;13.548;2022-08-01T01:07:10;100754.69;;;21.38;65.63
68594;BME280;55563;52.416;13.548;2022-08-01T01:09:35;100765.03;;;21.39;65.80
68594;BME280;55563;52.416;13.548;2022-08-01T01:11:47;100760.16;;;21.41;65.67
68594;BME280;55563;52.416;13.548;2022-08-01T01:13:53;100761.84;;;21.46;65.88
68594;BME280;55563;52.416;13.548;2022-08-01T01:16:03;100761.53;;;21.47;65.80
68594;BME280;55563;52.416;13.548;2022-08-01T01:18:09;100746.31;;;21.39;66.07
68594;BME280;55563;52.416;13.548;2022-08-01T01:20:13;100749.53;;;21.33;66.70
68594;BME280;55563;52.416;13.548;2022-08-01T01:22:23;100745.31;;;21.31;66.90
68594;BME280;55563;52.416;13.548;2022-08-01T01:24:52;100738.84;;;21.33;66.76
68594;BME280;55563;52.416;13.548;2022-08-01T01:27:12;100742.75;;;21.35;66.76
68594;BME280;55563;52.416;13.548;2022-08-01T01:29:41;100746.84;;;21.12;67.79
68594;BME280;55563;52.416;13.548;2022-08-01T01:31:57;100747.72;;;21.24;67.35
68594;BME280;55563;52.416;13.548;2022-08-01T01:33:59;100748.50;;;21.25;67.45
68594;BME280;55563;52.416;13.548;2022-08-01T01:36:05;100743.28;;;21.28;67.41
68594;BME280;55563;52.416;13.548;2022-08-01T01:38:12;100745.97;;;21.28;67.55
68594;BME280;55563;52.416;13.548;2022-08-01T01:40:15;100732.91;;;21.27;67.80
68594;BME280;55563;52.416;13.548;2022-08-01T01:42:18;100742.94;;;21.09;68.65
68594;BME280;55563;52.416;13.548;2022-08-01T01:44:19;100728.88;;;21.21;68.23
68594;BME280;55563;52.416;13.548;2022-08-01T01:46:21;100733.00;;;21.18;68.13
68594;BME280;55563;52.416;13.548;2022-08-01T01:48:24;100733.09;;;21.22;67.48
68594;BME280;55563;52.416;13.548;2022-08-01T01:50:26;100736.69;;;21.26;68.40
68594;BME280;55563;52.416;13.548;2022-08-01T01:52:29;100731.75;;;21.16;68.45
68594;BME280;55563;52.416;13.548;2022-08-01T01:54:37;100729.41;;;21.14;68.85
68594;BME280;55563;52.416;13.548;2022-08-01T01:56:41;100734.75;;;21.06;69.25
68594;BME280;55563;52.416;13.548;2022-08-01T01:58:53;100733.53;;;21.03;69.28
68594;BME280;55563;52.416;13.548;2022-08-01T02:00:57;100733.22;;;21.05;69.12
68594;BME280;55563;52.416;13.548;2022-08-01T02:03:02;100732.56;;;21.08;68.71
68594;BME280;55563;52.416;13.548;2022-08-01T02:05:06;100734.41;;;20.95;69.41
68594;BME280;55563;52.416;13.548;2022-08-01T02:07:11;100729.97;;;20.99;69.01
68594;BME280;55563;52.416;13.548;2022-08-01T02:09:16;100738.75;;;21.00;69.35
68594;BME280;55563;52.416;13.548;2022-08-01T02:11:20;100739.38;;;20.97;69.13
68594;BME280;55563;52.416;13.548;2022-08-01T02:13:22;100738.34;;;20.89;69.80
68594;BME280;55563;52.416;13.548;2022-08-01T02:15:23;100742.13;;;20.88;70.38
68594;BME280;55563;52.416;13.548;2022-08-01T02:17:26;100747.78;;;20.86;70.05
68594;BME280;55563;52.416;13.548;2022-08-01T02:19:27;100743.41;;;20.82;70.57
68594;BME280;55563;52.416;13.548;2022-08-01T02:21:34;100737.16;;;20.78;71.05
68594;BME280;55563;52.416;13.548;2022-08-01T02:23:38;100745.00;;;20.83;71.04
68594;BME280;55563;52.416;13.548;2022-08-01T02:25:45;100741.22;;;20.84;70.94
68594;BME280;55563;52.416;13.548;2022-08-01T02:28:06;100746.63;;;20.75;71.58
68594;BME280;55563;52.416;13.548;2022-08-01T02:30:10;100745.22;;;20.69;72.06
68594;BME280;55563;52.416;13.548;2022-08-01T02:32:20;100747.13;;;20.69;72.19
68594;BME280;55563;52.416;13.548;2022-08-01T02:34:24;100740.84;;;20.65;72.19
68594;BME280;55563;52.416;13.548;2022-08-01T02:36:28;100746.50;;;20.63;72.19
68594;BME280;55563;52.416;13.548;2022-08-01T02:38:32;100743.41;;;20.61;72.65
68594;BME280;55563;52.416;13.548;2022-08-01T02:40:37;100740.44;;;20.54;73.18
68594;BME280;55563;52.416;13.548;2022-08-01T02:42:43;100748.00;;;20.52;73.35
68594;BME280;55563;52.416;13.548;2022-08-01T02:44:44;100749.16;;;20.42;73.47
68594;BME280;55563;52.416;13.548;2022-08-01T02:46:51;100744.25;;;20.44;73.70
68594;BME280;55563;52.416;13.548;2022-08-01T02:48:55;100740.34;;;20.42;73.86
68594;BME280;55563;52.416;13.548;2022-08-01T02:51:00;100741.59;;;20.44;73.71
68594;BME280;55563;52.416;13.548;2022-08-01T02:53:02;100745.22;;;20.40;73.98
68594;BME280;55563;52.416;13.548;2022-08-01T02:55:04;100738.97;;;20.36;74.48
68594;BME280;55563;52.416;13.548;2022-08-01T02:57:06;100742.72;;;20.35;74.58
68594;BME280;55563;52.416;13.548;2022-08-01T02:59:12;100736.16;;;20.32;74.73
68594;BME280;55563;52.416;13.548;2022-08-01T03:01:16;100741.94;;;20.26;75.07
68594;BME280;55563;52.416;13.548;2022-08-01T03:03:18;100742.88;;;20.30;74.60
68594;BME280;55563;52.416;13.548;2022-08-01T03:05:19;100737.41;;;20.26;74.96
68594;BME280;55563;52.416;13.548;2022-08-01T03:07:20;100738.53;;;20.17;75.61
68594;BME280;55563;52.416;13.548;2022-08-01T03:09:22;100736.78;;;20.21;74.97
68594;BME280;55563;52.416;13.548;2022-08-01T03:11:25;100747.47;;;20.21;75.33
68594;BME280;55563;52.416;13.548;2022-08-01T03:13:29;100747.19;;;20.14;76.03
68594;BME280;55563;52.416;13.548;2022-08-01T03:15:33;100752.53;;;20.14;75.75
68594;BME280;55563;52.416;13.548;2022-08-01T03:17:36;100750.94;;;20.13;76.29
68594;BME280;55563;52.416;13.548;2022-08-01T03:19:39;100746.22;;;20.10;76.18
68594;BME280;55563;52.416;13.548;2022-08-01T03:21:42;100755.66;;;20.07;76.26
68594;BME280;55563;52.416;13.548;2022-08-01T03:23:45;100748.94;;;20.01;76.40
68594;BME280;55563;52.416;13.548;2022-08-01T03:25:46;100752.25;;;19.98;76.60
68594;BME280;55563;52.416;13.548;2022-08-01T03:27:55;100756.19;;;19.92;77.50
68594;BME280;55563;52.416;13.548;2022-08-01T03:29:58;100759.78;;;19.96;77.21
68594;BME280;55563;52.416;13.548;2022-08-01T03:32:00;100751.63;;;19.92;76.99
68594;BME280;55563;52.416;13.548;2022-08-01T03:34:02;100758.53;;;19.93;77.40
68594;BME280;55563;52.416;13.548;2022-08-01T03:36:04;100759.78;;;19.96;77.27
68594;BME280;55563;52.416;13.548;2022-08-01T03:38:08;100756.16;;;20.00;77.27
68594;BME280;55563;52.416;13.548;2022-08-01T03:40:31;100764.19;;;19.92;77.77
68594;BME280;55563;52.416;13.548;2022-08-01T03:42:39;100757.91;;;19.96;77.44
68594;BME280;55563;52.416;13.548;2022-08-01T03:44:47;100766.03;;;20.00;77.67
68594;BME280;55563;52.416;13.548;2022-08-01T03:46:58;100766.06;;;19.91;77.95
68594;BME280;55563;52.416;13.548;2022-08-01T03:49:05;100763.72;;;19.98;77.56
68594;BME280;55563;52.416;13.548;2022-08-01T03:51:07;100761.34;;;19.97;77.89
68594;BME280;55563;52.416;13.548;2022-08-01T03:53:10;100768.88;;;20.03;77.36
68594;BME280;55563;52.416;13.548;2022-08-01T03:55:12;100769.50;;;20.00;77.84
68594;BME280;55563;52.416;13.548;2022-08-01T03:57:16;100773.44;;;20.03;78.04
68594;BME280;55563;52.416;13.548;2022-08-01T03:59:18;100770.72;;;20.12;77.33
68594;BME280;55563;52.416;13.548;2022-08-01T04:01:19;100770.16;;;19.89;78.85
68594;BME280;55563;52.416;13.548;2022-08-01T04:03:21;100767.97;;;19.82;79.28
68594;BME280;55563;52.416;13.548;2022-08-01T04:05:21;100769.50;;;19.92;78.74
68594;BME280;55563;52.416;13.548;2022-08-01T04:07:24;100768.56;;;19.96;78.34
68594;BME280;55563;52.416;13.548;2022-08-01T04:09:25;100773.75;;;19.93;78.98
68594;BME280;55563;52.416;13.548;2022-08-01T04:11:26;100771.91;;;19.85;79.27
68594;BME280;55563;52.416;13.548;2022-08-01T04:13:27;100783.47;;;19.97;78.56
68594;BME280;55563;52.416;13.548;2022-08-01T04:15:28;100779.09;;;19.93;78.38
68594;BME280;55563;52.416;13.548;2022-08-01T04:17:28;100776.44;;;19.84;79.81
68594;BME280;55563;52.416;13.548;2022-08-01T04:19:29;100775.47;;;19.97;78.54
68594;BME280;55563;52.416;13.548;2022-08-01T04:21:32;100776.59;;;19.88;79.86
68594;BME280;55563;52.416;13.548;2022-08-01T04:23:34;100784.41;;;20.01;78.71
68594;BME280;55563;52.416;13.548;2022-08-01T04:25:37;100781.41;;;20.12;78.13
68594;BME280;55563;52.416;13.548;2022-08-01T04:27:42;100782.53;;;20.02;78.66
68594;BME280;55563;52.416;13.548;2022-08-01T04:29:46;100785.34;;;20.06;78.71
68594;BME280;55563;52.416;13.548;2022-08-01T04:31:49;100786.47;;;20.05;79.16
68594;BME280;55563;52.416;13.548;2022-08-01T04:33:51;100780.63;;;20.11;78.15
68594;BME280;55563;52.416;13.548;2022-08-01T04:35:52;100779.38;;;20.09;78.24
68594;BME280;55563;52.416;13.548;2022-08-01T04:37:53;100777.91;;;20.20;78.24
68594;BME280;55563;52.416;13.548;2022-08-01T04:39:56;100777.03;;;20.07;79.46
68594;BME280;55563;52.416;13.548;2022-08-01T04:41:59;100779.03;;;20.19;78.80
68594;BME280;55563;52.416;13.548;2022-08-01T04:44:00;100778.25;;;20.10;79.32
68594;BME280;55563;52.416;13.548;2022-08-01T04:46:03;100783.44;;;20.15;78.67
68594;BME280;55563;52.416;13.548;2022-08-01T04:48:05;100782.94;;;20.21;78.15
68594;BME280;55563;52.416;13.548;2022-08-01T04:50:08;100788.47;;;20.16;79.38
68594;BME280;55563;52.416;13.548;2022-08-01T04:52:09;100783.25;;;20.20;79.35
68594;BME280;55563;52.416;13.548;2022-08-01T04:54:10;100787.66;;;20.16;80.05
68594;BME280;55563;52.416;13.548;2022-08-01T04:56:12;100791.09;;;20.25;79.51
68594;BME280;55563;52.416;13.548;2022-08-01T04:58:15;100792.38;;;20.19;80.21
68594;BME280;55563;52.416;13.548;2022-08-01T05:00:16;100785.78;;;20.16;80.69
68594;BME280;55563;52.416;13.548;2022-08-01T05:02:17;100791.25;;;20.20;80.59
68594;BME280;55563;52.416;13.548;2022-08-01T05:04:18;100787.63;;;20.24;79.75
68594;BME280;55563;52.416;13.548;2022-08-01T05:06:18;100792.97;;;20.24;80.45
68594;BME280;55563;52.416;13.548;2022-08-01T05:08:19;100796.16;;;20.18;81.07
68594;BME280;55563;52.416;13.548;2022-08-01T05:10:20;100794.09;;;20.15;82.08
68594;BME280;55563;52.416;13.548;2022-08-01T05:12:21;100799.59;;;20.18;81.79
68594;BME280;55563;52.416;13.548;2022-08-01T05:14:21;100798.19;;;20.21;81.76
68594;BME280;55563;52.416;13.548;2022-08-01T05:16:22;100805.56;;;20.24;82.21
68594;BME280;55563;52.416;13.548;2022-08-01T05:18:22;100802.09;;;20.23;81.96
68594;BME280;55563;52.416;13.548;2022-08-01T05:20:23;100802.63;;;20.08;83.87
68594;BME280;55563;52.416;13.548;2022-08-01T05:22:23;100812.19;;;20.09;83.12
68594;BME280;55563;52.416;13.548;2022-08-01T05:24:27;100805.59;;;20.07;84.05
68594;BME280;55563;52.416;13.548;2022-08-01T05:26:28;100807.94;;;20.08;84.23
68594;BME280;55563;52.416;13.548;2022-08-01T05:28:29;100802.28;;;20.18;83.09
68594;BME280;55563;52.416;13.548;2022-08-01T05:30:29;100807.31;;;20.11;83.73
68594;BME280;55563;52.416;13.548;2022-08-01T05:32:30;100803.72;;;20.07;84.56
68594;BME280;55563;52.416;13.548;2022-08-01T05:34:32;100803.72;;;20.07;84.54
68594;BME280;55563;52.416;13.548;2022-08-01T05:36:32;100810.13;;;20.15;83.65
68594;BME280;55563;52.416;13.548;2022-08-01T05:38:33;100804.19;;;20.09;84.49
68594;BME280;55563;52.416;13.548;2022-08-01T05:40:35;100806.53;;;20.02;85.13
68594;BME280;55563;52.416;13.548;2022-08-01T05:42:36;100797.41;;;20.12;84.59
68594;BME280;55563;52.416;13.548;2022-08-01T05:44:36;100805.72;;;20.19;83.93
68594;BME280;55563;52.416;13.548;2022-08-01T05:46:37;100813.91;;;20.14;84.17
68594;BME280;55563;52.416;13.548;2022-08-01T05:48:38;100806.69;;;20.14;84.84
68594;BME280;55563;52.416;13.548;2022-08-01T05:50:38;100803.66;;;20.24;83.92
68594;BME280;55563;52.416;13.548;2022-08-01T05:52:39;100805.56;;;20.32;83.58
68594;BME280;55563;52.416;13.548;2022-08-01T05:54:40;100806.34;;;20.33;84.27
68594;BME280;55563;52.416;13.548;2022-08-01T05:56:40;100814.81;;;20.35;84.17
68594;BME280;55563;52.416;13.548;2022-08-01T05:58:41;100809.34;;;20.31;84.69
68594;BME280;55563;52.416;13.548;2022-08-01T06:00:42;100813.69;;;20.44;83.67
68594;BME280;55563;52.416;13.548;2022-08-01T06:02:42;100823.91;;;20.34;84.49
68594;BME280;55563;52.416;13.548;2022-08-01T06:04:43;100815.72;;;20.39;84.14
68594;BME280;55563;52.416;13.548;2022-08-01T06:06:44;100819.16;;;20.48;83.59
68594;BME280;55563;52.416;13.548;2022-08-01T06:08:44;100820.38;;;20.59;82.68
68594;BME280;55563;52.416;13.548;2022-08-01T06:10:45;100822.91;;;20.56;83.16
68594;BME280;55563;52.416;13.548;2022-08-01T06:12:45;100823.34;;;20.58;83.49
68594;BME280;55563;52.416;13.548;2022-08-01T06:14:46;100832.63;;;20.60;82.68
68594;BME280;55563;52.416;13.548;2022-08-01T06:16:47;100825.28;;;20.49;83.81
68594;BME280;55563;52.416;13.548;2022-08-01T06:18:47;100827.28;;;20.60;82.52
68594;BME280;55563;52.416;13.548;2022-08-01T06:20:48;100828.38;;;20.59;83.25
68594;BME280;55563;52.416;13.548;2022-08-01T06:22:49;100826.81;;;20.58;83.63
68594;BME280;55563;52.416;13.548;2022-08-01T06:24:51;100827.91;;;20.66;83.14
68594;BME280;55563;52.416;13.548;2022-08-01T06:26:52;100831.63;;;20.73;83.31
68594;BME280;55563;52.416;13.548;2022-08-01T06:28:53;100827.19;;;20.86;82.05
68594;BME280;55563;52.416;13.548;2022-08-01T06:30:53;100838.63;;;20.95;81.78
68594;BME280;55563;52.416;13.548;2022-08-01T06:32:54;100834.38;;;20.94;82.09
68594;BME280;55563;52.416;13.548;2022-08-01T06:34:56;100829.16;;;20.98;81.69
68594;BME280;55563;52.416;13.548;2022-08-01T06:36:56;100835.16;;;20.95;81.83
68594;BME280;55563;52.416;13.548;2022-08-01T06:38:57;100847.56;;;20.99;81.57
68594;BME280;55563;52.416;13.548;2022-08-01T06:40:58;100841.09;;;21.00;81.58
68594;BME280;55563;52.416;13.548;2022-08-01T06:42:58;100837.13;;;21.06;80.77
68594;BME280;55563;52.416;13.548;2022-08-01T06:44:59;100839.28;;;21.13;79.96
68594;BME280;55563;52.416;13.548;2022-08-01T06:46:59;100840.91;;;21.14;80.61
68594;BME280;55563;52.416;13.548;2022-08-01T06:49:00;100839.47;;;21.08;80.81
68594;BME280;55563;52.416;13.548;2022-08-01T06:51:01;100844.50;;;21.09;80.61
68594;BME280;55563;52.416;13.548;2022-08-01T06:53:08;100839.94;;;21.18;80.16
68594;BME280;55563;52.416;13.548;2022-08-01T06:55:09;100838.34;;;21.17;80.71
68594;BME280;55563;52.416;13.548;2022-08-01T06:57:09;100841.19;;;21.12;81.13
68594;BME280;55563;52.416;13.548;2022-08-01T06:59:10;100841.97;;;21.13;81.18
68594;BME280;55563;52.416;13.548;2022-08-01T07:01:11;100839.78;;;21.15;80.96
68594;BME280;55563;52.416;13.548;2022-08-01T07:03:11;100840.38;;;21.20;80.70
68594;BME280;55563;52.416;13.548;2022-08-01T07:05:12;100852.13;;;21.28;81.08
68594;BME280;55563;52.416;13.548;2022-08-01T07:07:13;100852.13;;;21.28;81.79
68594;BME280;55563;52.416;13.548;2022-08-01T07:09:13;100848.53;;;21.24;81.85
68594;BME280;55563;52.416;13.548;2022-08-01T07:11:14;100848.53;;;21.24;81.78
68594;BME280;55563;52.416;13.548;2022-08-01T07:13:14;100853.22;;;20.98;82.56
68594;BME280;55563;52.416;13.548;2022-08-01T07:15:20;100857.00;;;21.26;81.12
68594;BME280;55563;52.416;13.548;2022-08-01T07:17:26;100853.66;;;21.38;81.13
68594;BME280;55563;52.416;13.548;2022-08-01T07:19:27;100859.59;;;21.43;81.19
68594;BME280;55563;52.416;13.548;2022-08-01T07:21:28;100848.88;;;21.64;80.44
68594;BME280;55563;52.416;13.548;2022-08-01T07:23:28;100846.19;;;21.64;80.02
68594;BME280;55563;52.416;13.548;2022-08-01T07:25:29;100849.44;;;21.90;78.50
68594;BME280;55563;52.416;13.548;2022-08-01T07:27:29;100845.66;;;21.91;79.49
68594;BME280;55563;52.416;13.548;2022-08-01T07:29:30;100848.47;;;21.74;79.10
68594;BME280;55563;52.416;13.548;2022-08-01T07:31:30;100847.28;;;21.84;79.02
68594;BME280;55563;52.416;13.548;2022-08-01T07:33:31;100848.94;;;21.76;79.03
68594;BME280;55563;52.416;13.548;2022-08-01T07:35:41;100850.00;;;22.16;78.29
68594;BME280;55563;52.416;13.548;2022-08-01T07:37:42;100858.44;;;22.39;77.05
68594;BME280;55563;52.416;13.548;2022-08-01T07:39:42;100856.41;;;22.24;77.85
68594;BME280;55563;52.416;13.548;2022-08-01T07:41:43;100852.63;;;22.25;77.10
68594;BME280;55563;52.416;13.548;2022-08-01T07:43:44;100861.50;;;22.17;77.47
68594;BME280;55563;52.416;13.548;2022-08-01T07:45:44;100860.38;;;22.06;77.14
68594;BME280;55563;52.416;13.548;2022-08-01T07:47:45;100856.78;;;21.81;78.62
68594;BME280;55563;52.416;13.548;2022-08-01T07:49:45;100851.34;;;21.90;77.89
68594;BME280;55563;52.416;13.548;2022-08-01T07:51:46;100854.75;;;21.99;78.16
68594;BME280;55563;52.416;13.548;2022-08-01T07:53:46;100856.13;;;22.05;78.05
68594;BME280;55563;52.416;13.548;2022-08-01T07:55:47;100865.00;;;21.97;77.70
68594;BME280;55563;52.416;13.548;2022-08-01T07:57:48;100861.72;;;21.91;77.38
68594;BME280;55563;52.416;13.548;2022-08-01T07:59:49;100863.91;;;21.77;78.06
68594;BME280;55563;52.416;13.548;2022-08-01T08:01:50;100864.66;;;21.77;77.26
68594;BME280;55563;52.416;13.548;2022-08-01T08:03:51;100866.06;;;21.63;78.84
68594;BME280;55563;52.416;13.548;2022-08-01T08:05:52;100866.50;;;21.65;78.28
68594;BME280;55563;52.416;13.548;2022-08-01T08:07:52;100862.84;;;21.69;78.31
68594;BME280;55563;52.416;13.548;2022-08-01T08:09:53;100866.81;;;21.63;78.41
68594;BME280;55563;52.416;13.548;2022-08-01T08:11:53;100869.09;;;21.73;77.98
68594;BME280;55563;52.416;13.548;2022-08-01T08:13:54;100869.66;;;21.67;78.02
68594;BME280;55563;52.416;13.548;2022-08-01T08:15:54;100871.56;;;21.79;77.38
68594;BME280;55563;52.416;13.548;2022-08-01T08:17:56;100866.50;;;21.86;77.41
68594;BME280;55563;52.416;13.548;2022-08-01T08:19:56;100882.31;;;21.58;78.84
68594;BME280;55563;52.416;13.548;2022-08-01T08:21:57;100879.09;;;21.64;79.30
68594;BME280;55563;52.416;13.548;2022-08-01T08:23:57;100879.38;;;21.71;77.62
68594;BME280;55563;52.416;13.548;2022-08-01T08:26:18;100883.47;;;21.69;77.40
68594;BME280;55563;52.416;13.548;2022-08-01T08:28:18;100871.94;;;21.77;76.54
68594;BME280;55563;52.416;13.548;2022-08-01T08:30:19;100879.69;;;21.70;76.79
68594;BME280;55563;52.416;13.548;2022-08-01T08:32:20;100878.25;;;21.72;75.98
68594;BME280;55563;52.416;13.548;2022-08-01T08:34:21;100878.50;;;21.59;76.40
68594;BME280;55563;52.416;13.548;2022-08-01T08:36:22;100881.72;;;21.52;76.94
68594;BME280;55563;52.416;13.548;2022-08-01T08:38:23;100881.91;;;21.47;77.52
68594;BME280;55563;52.416;13.548;2022-08-01T08:40:29;100886.28;;;21.52;77.13
68594;BME280;55563;52.416;13.548;2022-08-01T08:42:31;100880.47;;;21.70;75.85
68594;BME280;55563;52.416;13.548;2022-08-01T08:44:33;100884.16;;;21.78;75.69
68594;BME280;55563;52.416;13.548;2022-08-01T08:46:40;100893.34;;;21.77;75.63
68594;BME280;55563;52.416;13.548;2022-08-01T08:48:41;100897.81;;;21.64;75.52
68594;BME280;55563;52.416;13.548;2022-08-01T08:50:43;100898.78;;;21.60;75.04
68594;BME280;55563;52.416;13.548;2022-08-01T08:52:46;100909.88;;;21.50;75.94
68594;BME280;55563;52.416;13.548;2022-08-01T08:54:50;100907.97;;;21.50;75.94
68594;BME280;55563;52.416;13.548;2022-08-01T08:56:52;100914.44;;;21.49;75.23
68594;BME280;55563;52.416;13.548;2022-08-01T08:58:53;100915.59;;;21.40;75.36
68594;BME280;55563;52.416;13.548;2022-08-01T09:00:54;100917.22;;;21.32;76.24
68594;BME280;55563;52.416;13.548;2022-08-01T09:02:55;100914.00;;;21.47;75.81
68594;BME280;55563;52.416;13.548;2022-08-01T09:04:56;100916.41;;;21.61;75.70
68594;BME280;55563;52.416;13.548;2022-08-01T09:06:58;100910.56;;;21.67;74.85
68594;BME280;55563;52.416;13.548;2022-08-01T09:08:59;100912.34;;;22.05;73.57
68594;BME280;55563;52.416;13.548;2022-08-01T09:11:00;100922.56;;;22.24;72.90
68594;BME280;55563;52.416;13.548;2022-08-01T09:13:05;100911.94;;;22.48;70.75
68594;BME280;55563;52.416;13.548;2022-08-01T09:15:07;100907.00;;;22.50;70.86
68594;BME280;55563;52.416;13.548;2022-08-01T09:17:09;100904.94;;;22.02;71.78
68594;BME280;55563;52.416;13.548;2022-08-01T09:19:14;100910.69;;;22.45;70.92
68594;BME280;55563;52.416;13.548;2022-08-01T09:21:18;100910.16;;;22.52;70.77
68594;BME280;55563;52.416;13.548;2022-08-01T09:23:41;100919.69;;;22.74;68.72
68594;BME280;55563;52.416;13.548;2022-08-01T09:25:50;100914.41;;;22.65;68.77
68594;BME280;55563;52.416;13.548;2022-08-01T09:28:02;100918.34;;;22.68;69.55
68594;BME280;55563;52.416;13.548;2022-08-01T09:30:09;100927.69;;;22.61;69.20
68594;BME280;55563;52.416;13.548;2022-08-01T09:32:10;100937.16;;;22.47;70.63
68594;BME280;55563;52.416;13.548;2022-08-01T09:34:11;100933.34;;;22.48;69.06
68594;BME280;55563;52.416;13.548;2022-08-01T09:36:12;100931.25;;;22.53;69.04
68594;BME280;55563;52.416;13.548;2022-08-01T09:38:14;100938.59;;;22.44;69.76
68594;BME280;55563;52.416;13.548;2022-08-01T09:40:15;100934.69;;;22.42;68.58
68594;BME280;55563;52.416;13.548;2022-08-01T09:42:31;100932.47;;;22.44;68.33
68594;BME280;55563;52.416;13.548;2022-08-01T09:44:41;100937.56;;;22.37;69.08
68594;BME280;55563;52.416;13.548;2022-08-01T09:46:50;100938.44;;;22.29;68.95
68594;BME280;55563;52.416;13.548;2022-08-01T09:49:01;100941.41;;;21.94;70.33
68594;BME280;55563;52.416;13.548;2022-08-01T09:51:02;100937.06;;;22.02;70.44
68594;BME280;55563;52.416;13.548;2022-08-01T09:53:03;100944.00;;;22.03;70.10
68594;BME280;55563;52.416;13.548;2022-08-01T09:55:04;100947.25;;;22.08;70.14
68594;BME280;55563;52.416;13.548;2022-08-01T09:57:21;100944.97;;;21.98;70.10
68594;BME280;55563;52.416;13.548;2022-08-01T09:59:21;100952.16;;;22.06;70.46
68594;BME280;55563;52.416;13.548;2022-08-01T10:01:22;100949.53;;;22.18;69.45
68594;BME280;55563;52.416;13.548;2022-08-01T10:03:24;100951.91;;;22.20;69.74
68594;BME280;55563;52.416;13.548;2022-08-01T10:05:33;100942.22;;;22.28;69.71
68594;BME280;55563;52.416;13.548;2022-08-01T10:07:35;100948.84;;;22.42;68.59
68594;BME280;55563;52.416;13.548;2022-08-01T10:09:36;100951.75;;;22.37;68.08
68594;BME280;55563;52.416;13.548;2022-08-01T10:11:37;100960.38;;;22.55;67.95
68594;BME280;55563;52.416;13.548;2022-08-01T10:13:40;100956.72;;;22.59;68.16
68594;BME280;55563;52.416;13.548;2022-08-01T10:15:41;100953.13;;;22.55;68.38
68594;BME280;55563;52.416;13.548;2022-08-01T10:17:46;100964.84;;;22.51;69.18
68594;BME280;55563;52.416;13.548;2022-08-01T10:19:52;100956.47;;;22.52;69.05
68594;BME280;55563;52.416;13.548;2022-08-01T10:21:56;100965.31;;;22.53;68.98
68594;BME280;55563;52.416;13.548;2022-08-01T10:23:57;100962.19;;;22.30;69.29
68594;BME280;55563;52.416;13.548;2022-08-01T10:26:00;100965.09;;;22.25;69.90
68594;BME280;55563;52.416;13.548;2022-08-01T10:28:08;100968.09;;;22.24;69.63
68594;BME280;55563;52.416;13.548;2022-08-01T10:30:11;100968.22;;;22.27;68.99
68594;BME280;55563;52.416;13.548;2022-08-01T10:32:12;100964.44;;;22.28;68.90
68594;BME280;55563;52.416;13.548;2022-08-01T10:34:13;100967.09;;;22.28;68.98